createdAt,value
2018-08-31T00:06:40.664Z,100755.00
2018-08-31T00:11:57.126Z,100761.06
2018-08-31T00:17:00.744Z,100764.16
2018-08-31T00:22:04.457Z,100770.46
2018-08-31T00:27:19.236Z,100773.94
2018-08-31T00:34:37.689Z,100774.91
2018-08-31T00:41:04.829Z,100771.38
2018-08-31T00:46:08.486Z,100763.70
2018-08-31T00:51:12.111Z,100776.58
2018-08-31T00:56:15.967Z,100780.52
2018-08-31T01:01:19.615Z,100778.42
2018-08-31T01:06:23.389Z,100768.03
2018-08-31T01:11:27.058Z,100774.92
2018-08-31T01:16:30.914Z,100769.53
2018-08-31T01:21:34.628Z,100771.16
2018-08-31T01:26:38.250Z,100769.19
2018-08-31T01:31:41.894Z,100777.69
2018-08-31T01:36:45.560Z,100772.67
2018-08-31T01:41:49.219Z,100767.05
2018-08-31T01:46:52.913Z,100772.71
2018-08-31T01:51:56.516Z,100770.74
2018-08-31T01:57:00.138Z,100772.22
2018-08-31T02:02:03.817Z,100763.41
2018-08-31T02:07:07.559Z,100770.29
2018-08-31T02:12:11.252Z,100768.72
2018-08-31T02:17:14.921Z,100766.13
2018-08-31T02:22:18.578Z,100763.55
2018-08-31T02:27:22.196Z,100765.53
2018-08-31T02:32:25.899Z,100758.92
2018-08-31T02:37:29.634Z,100764.31
2018-08-31T02:42:33.266Z,100768.98
2018-08-31T02:47:36.923Z,100777.57
2018-08-31T02:52:40.654Z,100774.88
2018-08-31T02:57:44.242Z,100778.92
2018-08-31T03:02:48.136Z,100782.11
2018-08-31T03:07:51.855Z,100777.77
2018-08-31T03:12:55.535Z,100782.30
2018-08-31T03:17:59.237Z,100784.28
2018-08-31T03:23:02.950Z,100782.57
2018-08-31T03:28:06.569Z,100786.25
2018-08-31T03:33:10.214Z,100780.73
2018-08-31T03:38:13.969Z,100778.03
2018-08-31T03:43:17.613Z,100774.12
2018-08-31T03:48:21.226Z,100773.54
2018-08-31T03:53:24.933Z,100779.68
2018-08-31T03:58:28.635Z,100781.98
2018-08-31T04:03:32.315Z,100776.23
2018-08-31T04:08:36.036Z,100782.73
2018-08-31T04:13:39.703Z,100786.06
2018-08-31T04:18:43.624Z,100790.33
2018-08-31T04:23:47.270Z,100779.68
2018-08-31T04:28:50.960Z,100784.11
2018-08-31T04:33:54.697Z,100787.30
2018-08-31T04:38:58.335Z,100792.92
2018-08-31T04:44:02.009Z,100797.09
2018-08-31T04:49:05.810Z,100799.42
2018-08-31T04:54:09.815Z,100802.24
2018-08-31T04:59:13.440Z,100811.67
2018-08-31T05:04:17.171Z,100804.70
2018-08-31T05:09:20.934Z,100814.50
2018-08-31T05:14:24.581Z,100820.87
2018-08-31T05:19:28.218Z,100820.14
2018-08-31T05:24:31.943Z,100826.87
2018-08-31T05:29:35.628Z,100830.52
2018-08-31T05:34:39.390Z,100832.85
2018-08-31T05:39:43.131Z,100832.00
2018-08-31T05:44:46.937Z,100830.52
2018-08-31T05:49:50.582Z,100832.27
2018-08-31T05:54:54.201Z,100832.13
2018-08-31T05:59:57.880Z,100830.92
2018-08-31T06:05:05.225Z,100829.08
2018-08-31T06:10:08.880Z,100843.89
2018-08-31T06:15:12.653Z,100849.28
2018-08-31T06:20:17.134Z,100862.27
2018-08-31T06:25:20.762Z,100870.22
2018-08-31T06:30:24.342Z,100868.02
2018-08-31T06:35:28.067Z,100875.11
2018-08-31T06:40:31.693Z,100865.55
2018-08-31T06:45:35.352Z,100878.30
2018-08-31T06:50:39.050Z,100886.38
2018-08-31T06:55:42.719Z,100887.23
2018-08-31T07:00:46.379Z,100869.73
2018-08-31T07:05:50.072Z,100864.57
2018-08-31T07:10:53.756Z,100867.14
2018-08-31T07:15:57.379Z,100872.04
2018-08-31T07:21:01.043Z,100871.94
2018-08-31T07:26:04.677Z,100869.23
2018-08-31T07:31:08.392Z,100888.47
2018-08-31T07:36:12.146Z,100889.69
2018-08-31T07:41:15.826Z,100894.09
2018-08-31T07:46:19.474Z,100910.08
2018-08-31T07:51:23.309Z,100903.29
2018-08-31T07:56:26.963Z,100910.92
2018-08-31T08:01:30.620Z,100907.87
2018-08-31T08:06:34.376Z,100913.12
2018-08-31T08:11:38.067Z,100925.94
2018-08-31T08:16:41.726Z,100912.81
2018-08-31T08:21:45.437Z,100894.57
2018-08-31T08:26:49.090Z,100909.83
2018-08-31T08:31:52.786Z,100913.11
2018-08-31T08:36:56.608Z,100904.53
2018-08-31T08:42:00.308Z,100906.83
2018-08-31T08:47:03.869Z,100920.31
2018-08-31T08:52:07.847Z,100928.34
2018-08-31T08:57:14.039Z,100925.17
2018-08-31T09:02:17.656Z,100925.58
2018-08-31T09:07:21.307Z,100926.31
2018-08-31T09:12:25.035Z,100929.47
2018-08-31T09:17:28.766Z,100928.81
2018-08-31T09:22:32.482Z,100923.35
2018-08-31T09:27:36.186Z,100913.69
2018-08-31T09:32:39.962Z,100922.02
2018-08-31T09:37:43.642Z,100918.47
2018-08-31T09:42:47.326Z,100908.62
2018-08-31T09:47:50.921Z,100901.47
2018-08-31T09:52:54.601Z,100897.45
2018-08-31T09:57:58.600Z,100897.81
2018-08-31T10:03:06.249Z,100881.45
2018-08-31T10:08:09.890Z,100887.89
2018-08-31T10:13:13.579Z,100891.99
2018-08-31T10:18:17.215Z,100893.01
2018-08-31T10:23:20.910Z,100892.04
2018-08-31T10:28:24.606Z,100881.37
2018-08-31T10:33:28.258Z,100881.06
2018-08-31T10:38:31.962Z,100875.59
2018-08-31T10:43:35.578Z,100883.42
2018-08-31T10:48:39.296Z,100880.44
2018-08-31T10:53:42.867Z,100874.06
2018-08-31T10:58:46.491Z,100877.70
2018-08-31T11:03:50.134Z,100865.67
2018-08-31T11:08:53.730Z,100870.23
2018-08-31T11:13:57.479Z,100861.83
2018-08-31T11:19:01.211Z,100859.52
2018-08-31T11:24:05.179Z,100853.18
2018-08-31T11:29:08.827Z,100858.22
2018-08-31T11:34:12.436Z,100849.06
2018-08-31T11:39:16.310Z,100846.49
2018-08-31T11:44:20.245Z,100849.94
2018-08-31T11:49:23.871Z,100841.88
2018-08-31T11:54:27.519Z,100827.36
2018-08-31T11:59:31.113Z,100834.70
2018-08-31T12:04:34.872Z,100834.22
2018-08-31T12:09:38.684Z,100826.63
2018-08-31T12:14:42.647Z,100837.89
2018-08-31T12:19:46.428Z,100831.86
2018-08-31T12:24:50.961Z,100829.05
2018-08-31T12:29:55.274Z,100826.09
2018-08-31T12:34:58.966Z,100825.23
2018-08-31T12:40:04.291Z,100819.81
2018-08-31T12:45:08.206Z,100813.31
2018-08-31T12:50:11.950Z,100802.69
2018-08-31T12:55:15.702Z,100810.37
2018-08-31T13:00:19.984Z,100816.09
2018-08-31T13:05:23.709Z,100823.72
2018-08-31T13:10:28.486Z,100810.42
2018-08-31T13:15:32.693Z,100803.53
2018-08-31T13:20:36.561Z,100802.77
2018-08-31T13:25:40.342Z,100802.98
2018-08-31T13:30:44.425Z,100798.85
2018-08-31T13:35:48.833Z,100804.34
2018-08-31T13:40:52.734Z,100803.91
2018-08-31T13:45:57.093Z,100800.41
2018-08-31T13:51:01.124Z,100801.84
2018-08-31T13:56:04.724Z,100798.16
2018-08-31T14:01:08.422Z,100799.91
2018-08-31T14:06:12.282Z,100796.44
2018-08-31T14:11:16.129Z,100789.04
2018-08-31T14:16:19.813Z,100791.62
2018-08-31T14:21:23.725Z,100792.34
2018-08-31T14:26:27.465Z,100791.62
2018-08-31T14:31:31.490Z,100798.21
2018-08-31T14:36:36.373Z,100789.40
2018-08-31T14:41:40.167Z,100796.16
2018-08-31T14:46:44.178Z,100790.98
2018-08-31T14:51:47.876Z,100797.06
2018-08-31T14:56:51.730Z,100796.66
2018-08-31T15:01:55.389Z,100797.38
2018-08-31T15:06:58.969Z,100794.80
2018-08-31T15:12:02.766Z,100795.61
2018-08-31T15:17:06.502Z,100796.95
2018-08-31T15:22:10.276Z,100807.40
2018-08-31T15:27:13.862Z,100799.52
2018-08-31T15:32:17.648Z,100793.63
2018-08-31T15:37:21.213Z,100797.45
2018-08-31T15:42:24.925Z,100785.80
2018-08-31T15:47:28.607Z,100788.64
2018-08-31T15:52:32.196Z,100789.63
2018-08-31T15:57:35.906Z,100789.63
2018-08-31T16:02:40.265Z,100790.13
2018-08-31T16:07:43.988Z,100782.77
2018-08-31T16:12:47.634Z,100787.17
2018-08-31T16:17:51.288Z,100787.03
2018-08-31T16:22:54.961Z,100785.33
2018-08-31T16:27:58.586Z,100783.98
2018-08-31T16:33:02.225Z,100780.42
2018-08-31T16:38:06.216Z,100787.02
2018-08-31T16:43:11.044Z,100784.17
2018-08-31T16:48:14.693Z,100788.86
2018-08-31T16:53:18.523Z,100783.81
2018-08-31T16:58:22.288Z,100786.80
2018-08-31T17:03:28.591Z,100789.14
2018-08-31T17:08:32.444Z,100783.38
2018-08-31T17:13:36.748Z,100786.93
2018-08-31T17:18:41.423Z,100794.39
2018-08-31T17:23:45.896Z,100791.06
2018-08-31T17:28:54.618Z,100788.58
2018-08-31T17:34:04.745Z,100805.77
2018-08-31T17:39:11.757Z,100808.47
2018-08-31T17:44:15.464Z,100808.11
2018-08-31T17:49:25.971Z,100813.51
2018-08-31T17:54:29.765Z,100817.92
2018-08-31T17:59:33.491Z,100821.77
2018-08-31T18:04:38.379Z,100825.08
2018-08-31T18:09:42.185Z,100832.41
2018-08-31T18:14:46.747Z,100833.67
2018-08-31T18:19:50.354Z,100841.14
2018-08-31T18:24:53.968Z,100849.50
2018-08-31T18:29:57.610Z,100852.07
2018-08-31T18:35:01.652Z,100859.45
2018-08-31T18:40:07.809Z,100856.61
2018-08-31T18:45:11.956Z,100871.09
2018-08-31T18:50:15.746Z,100871.70
2018-08-31T18:55:19.391Z,100874.30
2018-08-31T19:00:25.083Z,100874.42
2018-08-31T19:05:30.009Z,100890.95
2018-08-31T19:10:33.821Z,100895.63
2018-08-31T19:15:38.265Z,100907.78
2018-08-31T19:20:42.337Z,100907.41
2018-08-31T19:25:46.957Z,100907.02
2018-08-31T19:30:50.815Z,100910.22
2018-08-31T19:35:55.574Z,100909.49
2018-08-31T19:40:59.658Z,100908.01
2018-08-31T19:46:05.118Z,100913.91
2018-08-31T19:51:08.679Z,100917.59
2018-08-31T19:56:13.059Z,100932.44
2018-08-31T20:01:17.153Z,100922.73
2018-08-31T20:06:24.303Z,100924.08
2018-08-31T20:11:28.948Z,100928.39
2018-08-31T20:16:32.602Z,100926.19
2018-08-31T20:21:37.470Z,100935.27
2018-08-31T20:26:41.939Z,100944.98
2018-08-31T20:31:46.171Z,100941.30
2018-08-31T20:36:51.066Z,100939.81
2018-08-31T20:41:54.947Z,100941.92
2018-08-31T20:47:00.395Z,100949.04
2018-08-31T20:52:07.083Z,100951.27
2018-08-31T20:57:10.864Z,100963.52
2018-08-31T21:02:15.865Z,100963.64
2018-08-31T21:07:19.572Z,100968.68
2018-08-31T21:12:23.419Z,100971.38
2018-08-31T21:17:28.007Z,100976.05
2018-08-31T21:22:32.391Z,100974.70
2018-08-31T21:27:37.126Z,100987.33
2018-08-31T21:32:41.810Z,100981.70
2018-08-31T21:37:45.608Z,100988.94
2018-08-31T21:42:49.463Z,100981.93
2018-08-31T21:47:53.120Z,100983.28
2018-08-31T21:52:56.835Z,100980.34
2018-08-31T21:58:00.563Z,100982.69
2018-08-31T22:03:04.284Z,100976.92
2018-08-31T22:08:08.070Z,100981.47
2018-08-31T22:13:11.879Z,100987.84
2018-08-31T22:18:15.653Z,100996.43
2018-08-31T22:23:19.525Z,101002.78
2018-08-31T22:28:23.893Z,101001.81
2018-08-31T22:33:27.707Z,101003.66
2018-08-31T22:38:31.425Z,100996.68
2018-08-31T22:43:40.337Z,100982.44
2018-08-31T22:48:44.099Z,100981.58
2018-08-31T22:53:48.200Z,100979.02
2018-08-31T22:58:52.207Z,100965.30
2018-08-31T23:03:55.961Z,100965.30
2018-08-31T23:08:59.676Z,100960.26
2018-08-31T23:14:03.495Z,100963.70
2018-08-31T23:19:07.228Z,100978.77
2018-08-31T23:24:11.463Z,100977.05
2018-08-31T23:29:15.123Z,100984.55
2018-08-31T23:34:18.964Z,100981.61
2018-08-31T23:39:22.709Z,100982.47
2018-08-31T23:44:26.461Z,100986.64
2018-08-31T23:49:30.177Z,100985.30
2018-08-31T23:54:33.929Z,100976.41
2018-08-31T23:59:37.731Z,100972.50
